Great Horkesley, United Kingdom
Current Conditions -  °F | °C
As of 10:50 AM on Wednesday 26 Nov 2014 (Local Time) from EGUW Reporting Station
Haze Haze  
Wind Chill: 46°   Ceiling: 200
Heat Index: 48°   Visibility: 1.2mi
Dew Point: 46°   Wind: 6mph
Humidity: 93%   Direction: 90°E
Pressure: 29.85"   Gusts: NA
Location:  51.94°N, 0.88°E
Report Text: EGUW 261050Z 09005KT 2000 BR BKN002 OVC008 09/08 Q1011 AMB TEMPO 4000 -RA BKN004 YLO2
Loading
Personal Weather Stations






























Interactive Weather Map New forecast layout! Learn more

10-Day Weather Forecast

Advertisements
Track Severe Weather on mobile